sensor_id;sensor_type;location;lat;lon;timestamp;P1;durP1;ratioP1;P2;durP2;ratioP2
69325;SDS011;56471;53.508;49.252;2023-02-26T00:00:11;6.43;;;3.90;;
69325;SDS011;56471;53.508;49.252;2023-02-26T00:02:42;8.35;;;3.80;;
69325;SDS011;56471;53.508;49.252;2023-02-26T00:05:12;6.53;;;3.60;;
69325;SDS011;56471;53.508;49.252;2023-02-26T00:07:38;6.55;;;3.75;;
69325;SDS011;56471;53.508;49.252;2023-02-26T00:10:04;6.65;;;3.78;;
69325;SDS011;56471;53.508;49.252;2023-02-26T00:12:32;6.13;;;3.55;;
69325;SDS011;56471;53.508;49.252;2023-02-26T00:14:58;5.35;;;3.50;;
69325;SDS011;56471;53.508;49.252;2023-02-26T00:19:49;6.68;;;3.70;;
69325;SDS011;56471;53.508;49.252;2023-02-26T00:22:15;6.82;;;3.90;;
69325;SDS011;56471;53.508;49.252;2023-02-26T00:24:41;6.38;;;3.60;;
69325;SDS011;56471;53.508;49.252;2023-02-26T00:27:08;10.23;;;4.13;;
69325;SDS011;56471;53.508;49.252;2023-02-26T00:29:36;5.47;;;3.50;;
69325;SDS011;56471;53.508;49.252;2023-02-26T00:32:02;7.50;;;3.67;;
69325;SDS011;56471;53.508;49.252;2023-02-26T00:34:28;7.28;;;3.75;;
69325;SDS011;56471;53.508;49.252;2023-02-26T00:37:12;7.03;;;3.95;;
69325;SDS011;56471;53.508;49.252;2023-02-26T00:39:58;8.55;;;4.30;;
69325;SDS011;56471;53.508;49.252;2023-02-26T00:42:41;10.40;;;4.45;;
69325;SDS011;56471;53.508;49.252;2023-02-26T00:45:07;8.77;;;4.30;;
69325;SDS011;56471;53.508;49.252;2023-02-26T00:50:21;10.68;;;4.40;;
69325;SDS011;56471;53.508;49.252;2023-02-26T00:55:17;9.38;;;4.60;;
69325;SDS011;56471;53.508;49.252;2023-02-26T00:57:44;9.25;;;4.43;;
69325;SDS011;56471;53.508;49.252;2023-02-26T01:00:10;7.80;;;4.68;;
69325;SDS011;56471;53.508;49.252;2023-02-26T01:02:36;11.70;;;5.18;;
69325;SDS011;56471;53.508;49.252;2023-02-26T01:05:04;10.70;;;4.70;;
69325;SDS011;56471;53.508;49.252;2023-02-26T01:07:32;7.97;;;4.47;;
69325;SDS011;56471;53.508;49.252;2023-02-26T01:10:06;8.48;;;4.63;;
69325;SDS011;56471;53.508;49.252;2023-02-26T01:12:33;11.02;;;5.05;;
69325;SDS011;56471;53.508;49.252;2023-02-26T01:14:59;9.18;;;4.72;;
69325;SDS011;56471;53.508;49.252;2023-02-26T01:20:17;10.88;;;5.07;;
69325;SDS011;56471;53.508;49.252;2023-02-26T01:22:55;10.80;;;4.30;;
69325;SDS011;56471;53.508;49.252;2023-02-26T01:25:29;9.32;;;4.43;;
69325;SDS011;56471;53.508;49.252;2023-02-26T01:28:03;10.07;;;4.70;;
69325;SDS011;56471;53.508;49.252;2023-02-26T01:30:29;8.25;;;4.15;;
69325;SDS011;56471;53.508;49.252;2023-02-26T01:43:10;7.93;;;3.85;;
69325;SDS011;56471;53.508;49.252;2023-02-26T01:45:47;7.13;;;3.30;;
69325;SDS011;56471;53.508;49.252;2023-02-26T01:54:12;8.35;;;3.15;;
69325;SDS011;56471;53.508;49.252;2023-02-26T01:56:39;7.47;;;3.35;;
69325;SDS011;56471;53.508;49.252;2023-02-26T01:59:06;8.00;;;3.30;;
69325;SDS011;56471;53.508;49.252;2023-02-26T02:01:35;6.13;;;3.25;;
69325;SDS011;56471;53.508;49.252;2023-02-26T02:04:03;6.32;;;3.47;;
69325;SDS011;56471;53.508;49.252;2023-02-26T02:06:30;6.03;;;3.25;;
69325;SDS011;56471;53.508;49.252;2023-02-26T02:08:56;7.53;;;3.58;;
69325;SDS011;56471;53.508;49.252;2023-02-26T02:11:22;5.60;;;3.05;;
69325;SDS011;56471;53.508;49.252;2023-02-26T02:13:52;4.97;;;3.10;;
69325;SDS011;56471;53.508;49.252;2023-02-26T02:19:08;5.47;;;2.75;;
69325;SDS011;56471;53.508;49.252;2023-02-26T02:27:12;6.00;;;2.88;;
69325;SDS011;56471;53.508;49.252;2023-02-26T02:29:50;5.60;;;2.90;;
69325;SDS011;56471;53.508;49.252;2023-02-26T02:32:22;5.68;;;2.78;;
69325;SDS011;56471;53.508;49.252;2023-02-26T02:35:08;5.43;;;2.72;;
69325;SDS011;56471;53.508;49.252;2023-02-26T02:37:58;5.47;;;2.70;;
69325;SDS011;56471;53.508;49.252;2023-02-26T02:40:42;4.30;;;2.63;;
69325;SDS011;56471;53.508;49.252;2023-02-26T02:43:18;5.35;;;2.58;;
69325;SDS011;56471;53.508;49.252;2023-02-26T02:45:56;6.93;;;2.80;;
69325;SDS011;56471;53.508;49.252;2023-02-26T02:48:30;6.82;;;2.70;;
69325;SDS011;56471;53.508;49.252;2023-02-26T02:51:04;5.70;;;2.80;;
69325;SDS011;56471;53.508;49.252;2023-02-26T02:53:46;5.50;;;2.63;;
69325;SDS011;56471;53.508;49.252;2023-02-26T02:58:59;6.45;;;2.65;;
69325;SDS011;56471;53.508;49.252;2023-02-26T03:01:35;6.50;;;2.60;;
69325;SDS011;56471;53.508;49.252;2023-02-26T03:04:06;5.72;;;2.40;;
69325;SDS011;56471;53.508;49.252;2023-02-26T03:06:39;5.75;;;2.35;;
69325;SDS011;56471;53.508;49.252;2023-02-26T03:09:06;5.80;;;2.50;;
69325;SDS011;56471;53.508;49.252;2023-02-26T03:11:36;6.07;;;2.40;;
69325;SDS011;56471;53.508;49.252;2023-02-26T03:14:03;3.90;;;2.50;;
69325;SDS011;56471;53.508;49.252;2023-02-26T03:24:34;5.13;;;2.15;;
69325;SDS011;56471;53.508;49.252;2023-02-26T03:27:09;5.35;;;2.45;;
69325;SDS011;56471;53.508;49.252;2023-02-26T03:29:57;5.28;;;2.50;;
69325;SDS011;56471;53.508;49.252;2023-02-26T03:35:08;6.28;;;2.63;;
69325;SDS011;56471;53.508;49.252;2023-02-26T03:37:44;8.30;;;2.72;;
69325;SDS011;56471;53.508;49.252;2023-02-26T03:43:22;4.45;;;2.33;;
69325;SDS011;56471;53.508;49.252;2023-02-26T03:45:58;7.70;;;2.80;;
69325;SDS011;56471;53.508;49.252;2023-02-26T03:48:28;6.22;;;2.67;;
69325;SDS011;56471;53.508;49.252;2023-02-26T03:51:00;6.97;;;2.78;;
69325;SDS011;56471;53.508;49.252;2023-02-26T03:53:30;8.43;;;3.38;;
69325;SDS011;56471;53.508;49.252;2023-02-26T03:56:24;8.30;;;2.92;;
69325;SDS011;56471;53.508;49.252;2023-02-26T03:58:55;7.72;;;2.78;;
69325;SDS011;56471;53.508;49.252;2023-02-26T04:01:22;6.22;;;2.78;;
69325;SDS011;56471;53.508;49.252;2023-02-26T04:03:55;12.75;;;3.88;;
69325;SDS011;56471;53.508;49.252;2023-02-26T04:06:24;12.40;;;3.30;;
69325;SDS011;56471;53.508;49.252;2023-02-26T04:08:53;9.07;;;2.92;;
69325;SDS011;56471;53.508;49.252;2023-02-26T04:11:20;8.13;;;3.22;;
69325;SDS011;56471;53.508;49.252;2023-02-26T04:13:47;14.15;;;3.10;;
69325;SDS011;56471;53.508;49.252;2023-02-26T04:16:13;9.52;;;3.30;;
69325;SDS011;56471;53.508;49.252;2023-02-26T04:18:39;10.15;;;3.10;;
69325;SDS011;56471;53.508;49.252;2023-02-26T04:21:09;6.38;;;2.70;;
69325;SDS011;56471;53.508;49.252;2023-02-26T04:23:44;5.43;;;2.60;;
69325;SDS011;56471;53.508;49.252;2023-02-26T04:26:09;13.02;;;3.97;;
69325;SDS011;56471;53.508;49.252;2023-02-26T04:28:35;11.25;;;2.92;;
69325;SDS011;56471;53.508;49.252;2023-02-26T04:31:02;9.85;;;3.45;;
69325;SDS011;56471;53.508;49.252;2023-02-26T04:33:29;14.77;;;2.85;;
69325;SDS011;56471;53.508;49.252;2023-02-26T04:35:59;7.93;;;2.80;;
69325;SDS011;56471;53.508;49.252;2023-02-26T04:38:25;10.05;;;2.97;;
69325;SDS011;56471;53.508;49.252;2023-02-26T04:40:51;12.40;;;3.08;;
69325;SDS011;56471;53.508;49.252;2023-02-26T04:43:17;13.73;;;3.10;;
69325;SDS011;56471;53.508;49.252;2023-02-26T04:45:46;9.80;;;2.80;;
69325;SDS011;56471;53.508;49.252;2023-02-26T04:48:12;11.60;;;3.65;;
69325;SDS011;56471;53.508;49.252;2023-02-26T04:50:39;10.13;;;2.88;;
69325;SDS011;56471;53.508;49.252;2023-02-26T04:53:04;10.93;;;2.90;;
69325;SDS011;56471;53.508;49.252;2023-02-26T04:55:30;14.98;;;2.95;;
69325;SDS011;56471;53.508;49.252;2023-02-26T04:57:56;10.65;;;2.97;;
69325;SDS011;56471;53.508;49.252;2023-02-26T05:00:21;15.02;;;2.90;;
69325;SDS011;56471;53.508;49.252;2023-02-26T05:02:47;12.65;;;2.88;;
69325;SDS011;56471;53.508;49.252;2023-02-26T05:05:13;10.77;;;2.80;;
69325;SDS011;56471;53.508;49.252;2023-02-26T05:07:38;13.13;;;2.90;;
69325;SDS011;56471;53.508;49.252;2023-02-26T05:10:05;11.05;;;2.83;;
69325;SDS011;56471;53.508;49.252;2023-02-26T05:12:31;10.88;;;3.50;;
69325;SDS011;56471;53.508;49.252;2023-02-26T05:14:57;13.07;;;3.17;;
69325;SDS011;56471;53.508;49.252;2023-02-26T05:17:23;8.32;;;2.40;;
69325;SDS011;56471;53.508;49.252;2023-02-26T05:19:49;7.63;;;3.10;;
69325;SDS011;56471;53.508;49.252;2023-02-26T05:22:14;12.00;;;3.00;;
69325;SDS011;56471;53.508;49.252;2023-02-26T05:24:41;12.85;;;2.58;;
69325;SDS011;56471;53.508;49.252;2023-02-26T05:27:08;11.70;;;2.80;;
69325;SDS011;56471;53.508;49.252;2023-02-26T05:29:34;12.45;;;2.85;;
69325;SDS011;56471;53.508;49.252;2023-02-26T05:31:59;11.90;;;2.90;;
69325;SDS011;56471;53.508;49.252;2023-02-26T05:34:28;8.07;;;2.65;;
69325;SDS011;56471;53.508;49.252;2023-02-26T05:36:54;14.25;;;2.72;;
69325;SDS011;56471;53.508;49.252;2023-02-26T05:39:19;15.85;;;2.95;;
69325;SDS011;56471;53.508;49.252;2023-02-26T05:41:45;12.32;;;2.70;;
69325;SDS011;56471;53.508;49.252;2023-02-26T05:44:12;12.40;;;2.80;;
69325;SDS011;56471;53.508;49.252;2023-02-26T05:46:37;12.88;;;3.00;;
69325;SDS011;56471;53.508;49.252;2023-02-26T05:49:03;14.00;;;2.97;;
69325;SDS011;56471;53.508;49.252;2023-02-26T05:51:29;15.10;;;3.50;;
69325;SDS011;56471;53.508;49.252;2023-02-26T05:53:54;16.77;;;3.60;;
69325;SDS011;56471;53.508;49.252;2023-02-26T05:56:20;15.60;;;3.22;;
69325;SDS011;56471;53.508;49.252;2023-02-26T05:58:46;11.38;;;2.90;;
69325;SDS011;56471;53.508;49.252;2023-02-26T06:01:11;17.05;;;3.08;;
69325;SDS011;56471;53.508;49.252;2023-02-26T06:03:37;15.57;;;3.03;;
69325;SDS011;56471;53.508;49.252;2023-02-26T06:06:08;15.63;;;3.20;;
69325;SDS011;56471;53.508;49.252;2023-02-26T06:08:38;12.05;;;3.33;;
69325;SDS011;56471;53.508;49.252;2023-02-26T06:11:04;14.52;;;2.95;;
69325;SDS011;56471;53.508;49.252;2023-02-26T06:13:30;11.13;;;2.83;;
69325;SDS011;56471;53.508;49.252;2023-02-26T06:15:56;12.43;;;3.10;;
69325;SDS011;56471;53.508;49.252;2023-02-26T06:18:26;15.82;;;3.42;;
69325;SDS011;56471;53.508;49.252;2023-02-26T06:20:52;15.18;;;3.38;;
69325;SDS011;56471;53.508;49.252;2023-02-26T06:23:17;12.90;;;3.33;;
69325;SDS011;56471;53.508;49.252;2023-02-26T06:25:44;16.40;;;2.83;;
69325;SDS011;56471;53.508;49.252;2023-02-26T06:28:09;12.32;;;2.80;;
69325;SDS011;56471;53.508;49.252;2023-02-26T06:30:35;13.82;;;3.00;;
69325;SDS011;56471;53.508;49.252;2023-02-26T06:33:01;16.80;;;3.20;;
69325;SDS011;56471;53.508;49.252;2023-02-26T06:35:27;17.52;;;3.13;;
69325;SDS011;56471;53.508;49.252;2023-02-26T06:37:54;16.23;;;3.13;;
69325;SDS011;56471;53.508;49.252;2023-02-26T06:40:20;13.65;;;3.08;;
69325;SDS011;56471;53.508;49.252;2023-02-26T06:42:46;18.27;;;3.53;;
69325;SDS011;56471;53.508;49.252;2023-02-26T06:45:12;18.63;;;3.40;;
69325;SDS011;56471;53.508;49.252;2023-02-26T06:47:38;10.23;;;2.85;;
69325;SDS011;56471;53.508;49.252;2023-02-26T06:50:04;12.68;;;3.28;;
69325;SDS011;56471;53.508;49.252;2023-02-26T06:52:30;14.63;;;3.25;;
69325;SDS011;56471;53.508;49.252;2023-02-26T06:54:56;17.90;;;3.10;;
69325;SDS011;56471;53.508;49.252;2023-02-26T06:57:22;19.42;;;3.60;;
69325;SDS011;56471;53.508;49.252;2023-02-26T06:59:47;17.77;;;3.22;;
69325;SDS011;56471;53.508;49.252;2023-02-26T07:02:18;15.82;;;3.05;;
69325;SDS011;56471;53.508;49.252;2023-02-26T07:04:45;16.35;;;3.38;;
69325;SDS011;56471;53.508;49.252;2023-02-26T07:07:11;17.42;;;3.33;;
69325;SDS011;56471;53.508;49.252;2023-02-26T07:09:37;16.17;;;3.53;;
69325;SDS011;56471;53.508;49.252;2023-02-26T07:12:03;18.67;;;3.92;;
69325;SDS011;56471;53.508;49.252;2023-02-26T07:14:31;16.83;;;3.33;;
69325;SDS011;56471;53.508;49.252;2023-02-26T07:16:58;19.98;;;3.33;;
69325;SDS011;56471;53.508;49.252;2023-02-26T07:19:24;16.02;;;3.42;;
69325;SDS011;56471;53.508;49.252;2023-02-26T07:21:50;17.88;;;3.50;;
69325;SDS011;56471;53.508;49.252;2023-02-26T07:24:15;15.55;;;3.08;;
69325;SDS011;56471;53.508;49.252;2023-02-26T07:26:41;14.65;;;3.30;;
69325;SDS011;56471;53.508;49.252;2023-02-26T07:29:07;17.67;;;3.60;;
69325;SDS011;56471;53.508;49.252;2023-02-26T07:31:33;19.80;;;4.00;;
69325;SDS011;56471;53.508;49.252;2023-02-26T07:33:58;23.10;;;3.60;;
69325;SDS011;56471;53.508;49.252;2023-02-26T07:36:24;17.83;;;3.45;;
69325;SDS011;56471;53.508;49.252;2023-02-26T07:38:49;19.63;;;3.63;;
69325;SDS011;56471;53.508;49.252;2023-02-26T07:41:15;23.05;;;4.00;;
69325;SDS011;56471;53.508;49.252;2023-02-26T07:43:41;24.23;;;3.90;;
69325;SDS011;56471;53.508;49.252;2023-02-26T07:46:07;29.42;;;3.90;;
69325;SDS011;56471;53.508;49.252;2023-02-26T07:48:33;20.25;;;4.43;;
69325;SDS011;56471;53.508;49.252;2023-02-26T07:50:59;18.60;;;3.60;;
69325;SDS011;56471;53.508;49.252;2023-02-26T07:53:24;16.88;;;3.47;;
69325;SDS011;56471;53.508;49.252;2023-02-26T07:55:50;15.23;;;3.38;;
69325;SDS011;56471;53.508;49.252;2023-02-26T07:58:16;24.42;;;3.63;;
69325;SDS011;56471;53.508;49.252;2023-02-26T08:00:42;19.67;;;3.85;;
69325;SDS011;56471;53.508;49.252;2023-02-26T08:03:08;20.95;;;3.78;;
69325;SDS011;56471;53.508;49.252;2023-02-26T08:05:34;20.13;;;3.45;;
69325;SDS011;56471;53.508;49.252;2023-02-26T08:08:00;18.67;;;3.20;;
69325;SDS011;56471;53.508;49.252;2023-02-26T08:10:27;24.95;;;3.95;;
69325;SDS011;56471;53.508;49.252;2023-02-26T08:12:53;24.77;;;4.43;;
69325;SDS011;56471;53.508;49.252;2023-02-26T08:15:19;20.27;;;3.83;;
69325;SDS011;56471;53.508;49.252;2023-02-26T08:17:45;21.98;;;3.83;;
69325;SDS011;56471;53.508;49.252;2023-02-26T08:20:11;18.33;;;3.42;;
69325;SDS011;56471;53.508;49.252;2023-02-26T08:22:39;21.67;;;4.00;;
69325;SDS011;56471;53.508;49.252;2023-02-26T08:25:05;22.95;;;3.47;;
69325;SDS011;56471;53.508;49.252;2023-02-26T08:27:32;20.25;;;3.67;;
69325;SDS011;56471;53.508;49.252;2023-02-26T08:29:57;19.88;;;3.53;;
69325;SDS011;56471;53.508;49.252;2023-02-26T08:32:23;18.75;;;3.30;;
69325;SDS011;56471;53.508;49.252;2023-02-26T08:34:51;14.80;;;3.25;;
69325;SDS011;56471;53.508;49.252;2023-02-26T08:37:17;12.35;;;3.00;;
69325;SDS011;56471;53.508;49.252;2023-02-26T08:39:45;18.58;;;4.15;;
69325;SDS011;56471;53.508;49.252;2023-02-26T08:42:11;17.20;;;3.05;;
69325;SDS011;56471;53.508;49.252;2023-02-26T08:44:40;17.35;;;3.22;;
69325;SDS011;56471;53.508;49.252;2023-02-26T08:47:07;23.20;;;3.50;;
69325;SDS011;56471;53.508;49.252;2023-02-26T08:49:32;21.02;;;3.13;;
69325;SDS011;56471;53.508;49.252;2023-02-26T08:51:58;19.65;;;3.40;;
69325;SDS011;56471;53.508;49.252;2023-02-26T08:54:24;16.40;;;2.97;;
69325;SDS011;56471;53.508;49.252;2023-02-26T08:56:50;13.73;;;3.50;;
69325;SDS011;56471;53.508;49.252;2023-02-26T08:59:17;15.15;;;3.08;;
69325;SDS011;56471;53.508;49.252;2023-02-26T09:01:43;11.82;;;3.58;;
69325;SDS011;56471;53.508;49.252;2023-02-26T09:04:09;13.70;;;3.90;;
69325;SDS011;56471;53.508;49.252;2023-02-26T09:06:34;15.10;;;3.28;;
69325;SDS011;56471;53.508;49.252;2023-02-26T09:09:00;11.60;;;3.08;;
69325;SDS011;56471;53.508;49.252;2023-02-26T09:11:26;14.57;;;3.30;;
69325;SDS011;56471;53.508;49.252;2023-02-26T09:13:54;13.85;;;3.25;;
69325;SDS011;56471;53.508;49.252;2023-02-26T09:16:23;14.48;;;4.07;;
69325;SDS011;56471;53.508;49.252;2023-02-26T09:18:49;15.23;;;3.40;;
69325;SDS011;56471;53.508;49.252;2023-02-26T09:21:15;20.13;;;3.90;;
69325;SDS011;56471;53.508;49.252;2023-02-26T09:23:41;14.98;;;3.20;;
69325;SDS011;56471;53.508;49.252;2023-02-26T09:26:07;12.32;;;3.28;;
69325;SDS011;56471;53.508;49.252;2023-02-26T09:28:34;9.93;;;2.97;;
69325;SDS011;56471;53.508;49.252;2023-02-26T09:31:00;8.07;;;3.10;;
69325;SDS011;56471;53.508;49.252;2023-02-26T09:33:25;12.40;;;3.58;;
69325;SDS011;56471;53.508;49.252;2023-02-26T09:35:51;6.80;;;2.80;;
69325;SDS011;56471;53.508;49.252;2023-02-26T09:38:17;12.35;;;2.95;;
69325;SDS011;56471;53.508;49.252;2023-02-26T09:40:48;9.80;;;2.83;;
69325;SDS011;56471;53.508;49.252;2023-02-26T09:45:50;13.02;;;2.58;;
69325;SDS011;56471;53.508;49.252;2023-02-26T09:48:18;5.80;;;2.35;;
69325;SDS011;56471;53.508;49.252;2023-02-26T09:50:47;10.25;;;3.03;;
69325;SDS011;56471;53.508;49.252;2023-02-26T09:55:47;12.73;;;2.90;;
69325;SDS011;56471;53.508;49.252;2023-02-26T09:58:20;7.57;;;2.67;;
69325;SDS011;56471;53.508;49.252;2023-02-26T10:01:10;10.25;;;3.15;;
69325;SDS011;56471;53.508;49.252;2023-02-26T10:12:17;848.75;;;520.40;;
69325;SDS011;56471;53.508;49.252;2023-02-26T10:14:56;718.33;;;423.88;;
69325;SDS011;56471;53.508;49.252;2023-02-26T10:20:32;475.30;;;259.17;;
69325;SDS011;56471;53.508;49.252;2023-02-26T10:23:06;370.20;;;182.00;;
69325;SDS011;56471;53.508;49.252;2023-02-26T10:42:17;69.90;;;29.50;;
69325;SDS011;56471;53.508;49.252;2023-02-26T10:50:09;38.90;;;15.05;;
69325;SDS011;56471;53.508;49.252;2023-02-26T10:52:38;33.47;;;12.98;;
69325;SDS011;56471;53.508;49.252;2023-02-26T10:58:22;23.67;;;9.77;;
69325;SDS011;56471;53.508;49.252;2023-02-26T11:00:49;22.65;;;8.70;;
69325;SDS011;56471;53.508;49.252;2023-02-26T11:03:19;15.93;;;7.38;;
69325;SDS011;56471;53.508;49.252;2023-02-26T11:05:51;16.65;;;7.55;;
69325;SDS011;56471;53.508;49.252;2023-02-26T11:08:27;15.00;;;6.97;;
69325;SDS011;56471;53.508;49.252;2023-02-26T11:11:00;17.63;;;6.75;;
69325;SDS011;56471;53.508;49.252;2023-02-26T11:13:29;12.98;;;5.82;;
69325;SDS011;56471;53.508;49.252;2023-02-26T11:16:00;14.65;;;6.10;;
69325;SDS011;56471;53.508;49.252;2023-02-26T11:18:30;13.93;;;5.45;;
69325;SDS011;56471;53.508;49.252;2023-02-26T11:21:03;16.70;;;6.68;;
69325;SDS011;56471;53.508;49.252;2023-02-26T11:23:30;887.10;;;567.78;;
69325;SDS011;56471;53.508;49.252;2023-02-26T11:26:02;754.33;;;480.10;;
69325;SDS011;56471;53.508;49.252;2023-02-26T11:28:34;635.58;;;377.90;;
69325;SDS011;56471;53.508;49.252;2023-02-26T11:31:06;536.95;;;317.45;;
69325;SDS011;56471;53.508;49.252;2023-02-26T11:36:04;389.13;;;202.70;;
69325;SDS011;56471;53.508;49.252;2023-02-26T11:39:04;315.25;;;152.10;;
69325;SDS011;56471;53.508;49.252;2023-02-26T11:41:36;257.13;;;127.57;;
69325;SDS011;56471;53.508;49.252;2023-02-26T11:44:07;212.80;;;106.03;;
69325;SDS011;56471;53.508;49.252;2023-02-26T11:46:40;171.23;;;84.78;;
69325;SDS011;56471;53.508;49.252;2023-02-26T11:49:09;140.70;;;68.88;;
69325;SDS011;56471;53.508;49.252;2023-02-26T11:51:38;118.95;;;56.65;;
69325;SDS011;56471;53.508;49.252;2023-02-26T11:54:20;97.22;;;44.15;;
69325;SDS011;56471;53.508;49.252;2023-02-26T11:56:52;82.27;;;35.50;;
69325;SDS011;56471;53.508;49.252;2023-02-26T11:59:26;69.82;;;29.10;;
69325;SDS011;56471;53.508;49.252;2023-02-26T12:01:55;54.80;;;23.45;;
69325;SDS011;56471;53.508;49.252;2023-02-26T12:04:26;49.60;;;20.30;;
69325;SDS011;56471;53.508;49.252;2023-02-26T12:06:53;35.72;;;16.63;;
69325;SDS011;56471;53.508;49.252;2023-02-26T12:09:20;30.95;;;13.90;;
69325;SDS011;56471;53.508;49.252;2023-02-26T12:14:43;24.42;;;10.02;;
69325;SDS011;56471;53.508;49.252;2023-02-26T12:17:20;21.63;;;8.88;;
69325;SDS011;56471;53.508;49.252;2023-02-26T12:22:48;13.55;;;6.65;;
69325;SDS011;56471;53.508;49.252;2023-02-26T12:33:47;771.10;;;439.90;;
69325;SDS011;56471;53.508;49.252;2023-02-26T12:36:39;832.22;;;503.23;;
69325;SDS011;56471;53.508;49.252;2023-02-26T12:42:30;531.05;;;292.98;;
69325;SDS011;56471;53.508;49.252;2023-02-26T12:58:39;121.07;;;53.55;;
69325;SDS011;56471;53.508;49.252;2023-02-26T13:01:19;96.82;;;39.95;;
69325;SDS011;56471;53.508;49.252;2023-02-26T13:09:24;40.28;;;16.30;;
69325;SDS011;56471;53.508;49.252;2023-02-26T13:14:38;23.08;;;10.80;;
69325;SDS011;56471;53.508;49.252;2023-02-26T13:20:09;16.15;;;7.18;;
69325;SDS011;56471;53.508;49.252;2023-02-26T13:22:44;12.23;;;6.05;;
69325;SDS011;56471;53.508;49.252;2023-02-26T13:25:57;9.40;;;5.28;;
69325;SDS011;56471;53.508;49.252;2023-02-26T13:30:59;10.65;;;5.00;;
69325;SDS011;56471;53.508;49.252;2023-02-26T13:33:29;9.05;;;4.43;;
69325;SDS011;56471;53.508;49.252;2023-02-26T13:35:57;10.90;;;4.60;;
69325;SDS011;56471;53.508;49.252;2023-02-26T13:38:37;8.35;;;4.38;;
69325;SDS011;56471;53.508;49.252;2023-02-26T13:41:14;9.15;;;4.13;;
69325;SDS011;56471;53.508;49.252;2023-02-26T13:49:20;10.68;;;4.47;;
69325;SDS011;56471;53.508;49.252;2023-02-26T13:51:55;697.80;;;382.98;;
69325;SDS011;56471;53.508;49.252;2023-02-26T13:54:32;514.47;;;270.75;;
69325;SDS011;56471;53.508;49.252;2023-02-26T14:02:47;181.35;;;78.82;;
69325;SDS011;56471;53.508;49.252;2023-02-26T14:08:24;87.88;;;35.97;;
69325;SDS011;56471;53.508;49.252;2023-02-26T14:10:56;65.35;;;25.85;;
69325;SDS011;56471;53.508;49.252;2023-02-26T14:13:23;50.70;;;19.02;;
69325;SDS011;56471;53.508;49.252;2023-02-26T14:23:54;17.45;;;6.95;;
69325;SDS011;56471;53.508;49.252;2023-02-26T14:26:47;11.73;;;5.75;;
69325;SDS011;56471;53.508;49.252;2023-02-26T14:29:38;12.25;;;5.00;;
69325;SDS011;56471;53.508;49.252;2023-02-26T14:34:35;13.25;;;5.20;;
69325;SDS011;56471;53.508;49.252;2023-02-26T14:37:07;8.77;;;4.15;;
69325;SDS011;56471;53.508;49.252;2023-02-26T14:39:45;12.48;;;4.50;;
69325;SDS011;56471;53.508;49.252;2023-02-26T14:42:17;10.40;;;4.25;;
69325;SDS011;56471;53.508;49.252;2023-02-26T14:44:49;10.55;;;4.30;;
69325;SDS011;56471;53.508;49.252;2023-02-26T14:47:18;14.70;;;4.80;;
69325;SDS011;56471;53.508;49.252;2023-02-26T14:49:45;9.77;;;4.00;;
69325;SDS011;56471;53.508;49.252;2023-02-26T15:00:51;9.75;;;3.78;;
69325;SDS011;56471;53.508;49.252;2023-02-26T15:03:46;10.00;;;3.80;;
69325;SDS011;56471;53.508;49.252;2023-02-26T15:06:24;10.43;;;3.70;;
69325;SDS011;56471;53.508;49.252;2023-02-26T15:19:22;7.90;;;3.90;;
69325;SDS011;56471;53.508;49.252;2023-02-26T15:24:54;7.75;;;3.60;;
69325;SDS011;56471;53.508;49.252;2023-02-26T15:27:20;9.30;;;3.47;;
69325;SDS011;56471;53.508;49.252;2023-02-26T15:29:47;9.23;;;3.80;;
69325;SDS011;56471;53.508;49.252;2023-02-26T15:32:29;10.70;;;3.67;;
69325;SDS011;56471;53.508;49.252;2023-02-26T15:37:48;11.18;;;3.60;;
69325;SDS011;56471;53.508;49.252;2023-02-26T15:40:15;686.00;;;400.10;;
69325;SDS011;56471;53.508;49.252;2023-02-26T15:42:42;516.28;;;285.63;;
69325;SDS011;56471;53.508;49.252;2023-02-26T15:45:13;390.80;;;194.43;;
69325;SDS011;56471;53.508;49.252;2023-02-26T15:47:52;275.35;;;129.30;;
69325;SDS011;56471;53.508;49.252;2023-02-26T15:50:23;191.57;;;90.63;;
69325;SDS011;56471;53.508;49.252;2023-02-26T15:52:54;126.72;;;57.03;;
69325;SDS011;56471;53.508;49.252;2023-02-26T15:55:22;91.80;;;39.63;;
69325;SDS011;56471;53.508;49.252;2023-02-26T15:57:49;69.72;;;27.77;;
69325;SDS011;56471;53.508;49.252;2023-02-26T16:00:16;51.95;;;20.55;;
69325;SDS011;56471;53.508;49.252;2023-02-26T16:02:49;34.22;;;14.52;;
69325;SDS011;56471;53.508;49.252;2023-02-26T16:05:17;26.00;;;10.73;;
69325;SDS011;56471;53.508;49.252;2023-02-26T16:07:44;21.67;;;9.13;;
69325;SDS011;56471;53.508;49.252;2023-02-26T16:10:26;16.27;;;7.40;;
69325;SDS011;56471;53.508;49.252;2023-02-26T16:13:25;12.65;;;5.70;;
69325;SDS011;56471;53.508;49.252;2023-02-26T16:15:54;8.63;;;4.47;;
69325;SDS011;56471;53.508;49.252;2023-02-26T16:18:27;8.80;;;3.95;;
69325;SDS011;56471;53.508;49.252;2023-02-26T16:20:55;9.98;;;3.67;;
69325;SDS011;56471;53.508;49.252;2023-02-26T16:23:24;7.55;;;3.50;;
69325;SDS011;56471;53.508;49.252;2023-02-26T16:26:03;9.35;;;3.45;;
69325;SDS011;56471;53.508;49.252;2023-02-26T16:28:35;7.68;;;2.88;;
69325;SDS011;56471;53.508;49.252;2023-02-26T16:31:17;8.02;;;3.45;;
69325;SDS011;56471;53.508;49.252;2023-02-26T16:34:03;5.88;;;3.00;;
69325;SDS011;56471;53.508;49.252;2023-02-26T16:36:39;984.88;;;567.55;;
69325;SDS011;56471;53.508;49.252;2023-02-26T16:41:35;598.60;;;325.77;;
69325;SDS011;56471;53.508;49.252;2023-02-26T16:44:03;457.98;;;231.02;;
69325;SDS011;56471;53.508;49.252;2023-02-26T16:46:55;303.90;;;134.65;;
69325;SDS011;56471;53.508;49.252;2023-02-26T16:49:32;219.38;;;98.25;;
69325;SDS011;56471;53.508;49.252;2023-02-26T16:52:00;165.40;;;72.03;;
69325;SDS011;56471;53.508;49.252;2023-02-26T16:54:29;123.32;;;52.03;;
69325;SDS011;56471;53.508;49.252;2023-02-26T17:00:02;63.42;;;25.13;;
69325;SDS011;56471;53.508;49.252;2023-02-26T17:02:33;44.90;;;17.90;;
69325;SDS011;56471;53.508;49.252;2023-02-26T17:05:24;33.78;;;13.50;;
69325;SDS011;56471;53.508;49.252;2023-02-26T17:08:14;22.33;;;9.43;;
69325;SDS011;56471;53.508;49.252;2023-02-26T17:10:45;18.85;;;7.75;;
69325;SDS011;56471;53.508;49.252;2023-02-26T17:13:18;13.60;;;6.20;;
69325;SDS011;56471;53.508;49.252;2023-02-26T17:15:49;11.52;;;5.00;;
69325;SDS011;56471;53.508;49.252;2023-02-26T17:18:15;8.57;;;4.50;;
69325;SDS011;56471;53.508;49.252;2023-02-26T17:20:41;7.80;;;3.63;;
69325;SDS011;56471;53.508;49.252;2023-02-26T17:23:09;6.57;;;3.33;;
69325;SDS011;56471;53.508;49.252;2023-02-26T17:25:46;6.10;;;3.10;;
69325;SDS011;56471;53.508;49.252;2023-02-26T17:28:22;5.60;;;2.75;;
69325;SDS011;56471;53.508;49.252;2023-02-26T17:30:50;6.70;;;2.75;;
69325;SDS011;56471;53.508;49.252;2023-02-26T17:33:28;4.25;;;2.55;;
69325;SDS011;56471;53.508;49.252;2023-02-26T17:35:55;6.25;;;2.75;;
69325;SDS011;56471;53.508;49.252;2023-02-26T17:38:24;3.90;;;2.20;;
69325;SDS011;56471;53.508;49.252;2023-02-26T17:40:51;4.18;;;2.47;;
69325;SDS011;56471;53.508;49.252;2023-02-26T17:43:20;4.20;;;2.30;;
69325;SDS011;56471;53.508;49.252;2023-02-26T17:45:46;3.88;;;2.25;;
69325;SDS011;56471;53.508;49.252;2023-02-26T17:48:12;4.03;;;2.35;;
69325;SDS011;56471;53.508;49.252;2023-02-26T17:50:41;3.42;;;2.10;;
69325;SDS011;56471;53.508;49.252;2023-02-26T17:53:28;4.35;;;2.30;;